Barrow, AK

5:16 PM AKDT on July 22, 2014 (GMT -0800)
Nuiqsut (PAQT) Elev 39 ft | 70.21 °N, 150.99 °W | Change Station

Current weather conditions updated 23 minutes ago

Overcast
Overcast
44 °F
Feels Like 39 °F
N
10
Wind Variable Wind from NE

Tomorrow is forecast to be nearly the same temperature as today. Afternoon showers.

Today
High -- | Low -- °F
--% Chance of Precip.
Yesterday
High -- | Low -- °F
Precip. -- in
2:42 AM 1:38 AM
Waning Crescent, 14% visible
Pressure 29.86 in
Visibility 10.0 miles
Clouds Overcast 1900 ft
Windchill 39 °F
Dew Point 40 °F
Humidity 85%
Rainfall 0.00 in
Snow Depth Not available.
UV 1 out of 12
Pollen Not available.
Air Quality Not available.
Flu Activity Not available.
METAR PAQT 230053Z AUTO 05009KT 10SM OVC019 07/04 A2986 RMK SLP112 T00670044 TSNO VIA AUTODIAL

More Conditions Fewer Conditions

Pressure 29.86 in
Visibility 10.0 miles
Clouds Overcast 1900 ft
Windchill 39 °F
Dew Point 40 °F
Humidity 85%
Rainfall 0.00 in
Snow Depth Not available.
UV 1 out of 12
Pollen Not available.
Air Quality Not available.
Flu Activity Not available.
METAR PAQT 230053Z AUTO 05009KT 10SM OVC019 07/04 A2986 RMK SLP112 T00670044 TSNO VIA AUTODIAL

More Conditions Fewer Conditions

10-Day Weather Forecast

Almanac

Astronomy

Jul. 22, 2014 Rise Set
Actual Time 2:42 AM AKDT 1:38 AM AKDT
Civil Twilight Sun does not rise Sun does not rise
Nautical Twilight Sun does not rise Sun does not rise
Astronomical Twilight Sun does not rise Sun does not rise
Moon 12:10 AM AKDT (7/22) 9:58 PM AKDT (7/22)
Length of Visible Light 24h 00m
Length of Day
22h 55m
Tomorrow will be 0m 1s shorter.
Waning Crescent, 14% of the Moon is Illuminated
Today
Waning Crescent
Jul 26
New
Aug 3
First Quarter
Aug 10
Full
Aug 17
Last Quarter

Today's Extremes

State Highs State Lows

Community

WunderPhotos

Upload Photos

1,736,423 photos uploaded!

Nearby

Snow Depth

Station Depth Elevation
Imnaviat Creek 0 in 3050 ft
Atigun Pass 0 in 4800 ft
Coldfoot 1 in 1040 ft
Gobblers Knob 0 in 2030 ft
Fort Yukon 3 in 430 ft

Earthquake Activity

City Distance Mag. Time & Date
No recent earthquake activity has been reported nearby.
Minimum magnitude displayed is 2.5.

Coastal Water Temperatures

Place Temperature
No Stations Reporting

Nearby Weather Stations

Station Location Temp. Windchill Dew Point Humidity Wind Precip. Elev Updated Type
HADS JUDY CREEK NEAR NUIQSUT 17W , Barrow, AK 45 °F 45 °F - - North  at  - 0.00 in / hr 42 ft 4:00 PM AKDT MADIS

Show More Stations Show Fewer Stations